sensor_id;sensor_type;location;lat;lon;timestamp;pressure;altitude;pressure_sealevel;temperature;humidity
46714;BME280;32445;51.376;10.874;2023-05-24T00:01:32;99864.34;;;11.82;49.19
46714;BME280;32445;51.376;10.874;2023-05-24T00:04:33;99860.13;;;11.78;49.21
46714;BME280;32445;51.376;10.874;2023-05-24T00:07:34;99862.81;;;11.75;49.25
46714;BME280;32445;51.376;10.874;2023-05-24T00:10:35;99868.09;;;11.70;49.28
46714;BME280;32445;51.376;10.874;2023-05-24T00:13:36;99861.25;;;11.66;48.84
46714;BME280;32445;51.376;10.874;2023-05-24T00:16:36;99860.50;;;11.63;49.10
46714;BME280;32445;51.376;10.874;2023-05-24T00:19:37;99852.81;;;11.58;49.28
46714;BME280;32445;51.376;10.874;2023-05-24T00:22:39;99855.53;;;11.53;49.25
46714;BME280;32445;51.376;10.874;2023-05-24T00:25:39;99859.09;;;11.49;48.79
46714;BME280;32445;51.376;10.874;2023-05-24T00:28:39;99858.31;;;11.46;49.24
46714;BME280;32445;51.376;10.874;2023-05-24T00:31:40;99856.66;;;11.41;49.05
46714;BME280;32445;51.376;10.874;2023-05-24T00:34:40;99869.78;;;11.37;49.26
46714;BME280;32445;51.376;10.874;2023-05-24T00:37:41;99868.97;;;11.33;49.31
46714;BME280;32445;51.376;10.874;2023-05-24T00:40:44;99861.34;;;11.27;49.15
46714;BME280;32445;51.376;10.874;2023-05-24T00:43:44;99870.06;;;11.24;48.84
46714;BME280;32445;51.376;10.874;2023-05-24T00:46:45;99867.56;;;11.20;49.35
46714;BME280;32445;51.376;10.874;2023-05-24T00:49:46;99872.88;;;11.15;48.86
46714;BME280;32445;51.376;10.874;2023-05-24T00:52:48;99868.63;;;11.11;49.55
46714;BME280;32445;51.376;10.874;2023-05-24T00:55:48;99877.38;;;11.07;49.41
46714;BME280;32445;51.376;10.874;2023-05-24T00:58:50;99874.84;;;11.04;48.99
46714;BME280;32445;51.376;10.874;2023-05-24T01:01:53;99874.09;;;10.99;48.98
46714;BME280;32445;51.376;10.874;2023-05-24T01:04:54;99875.94;;;10.94;48.91
46714;BME280;32445;51.376;10.874;2023-05-24T01:08:07;99875.19;;;10.88;50.19
46714;BME280;32445;51.376;10.874;2023-05-24T01:15:06;99875.38;;;10.79;49.89
46714;BME280;32445;51.376;10.874;2023-05-24T01:18:16;99877.19;;;10.76;49.34
46714;BME280;32445;51.376;10.874;2023-05-24T01:21:47;99876.41;;;10.72;49.55
46714;BME280;32445;51.376;10.874;2023-05-24T01:25:02;99870.41;;;10.68;49.25
46714;BME280;32445;51.376;10.874;2023-05-24T01:28:04;99864.47;;;10.63;49.87
46714;BME280;32445;51.376;10.874;2023-05-24T01:31:04;99861.03;;;10.61;49.61
46714;BME280;32445;51.376;10.874;2023-05-24T01:34:05;99857.66;;;10.58;49.70
46714;BME280;32445;51.376;10.874;2023-05-24T01:37:06;99866.41;;;10.53;49.66
46714;BME280;32445;51.376;10.874;2023-05-24T01:40:07;99856.97;;;10.49;49.58
46714;BME280;32445;51.376;10.874;2023-05-24T01:43:26;99857.09;;;10.43;49.78
46714;BME280;32445;51.376;10.874;2023-05-24T01:46:34;99854.53;;;10.42;49.35
46714;BME280;32445;51.376;10.874;2023-05-24T01:49:42;99863.22;;;10.39;49.55
46714;BME280;32445;51.376;10.874;2023-05-24T01:52:43;99864.13;;;10.36;49.26
46714;BME280;32445;51.376;10.874;2023-05-24T01:55:47;99865.03;;;10.34;50.07
46714;BME280;32445;51.376;10.874;2023-05-24T01:58:49;99865.91;;;10.31;50.12
46714;BME280;32445;51.376;10.874;2023-05-24T02:01:52;99858.19;;;10.28;49.74
46714;BME280;32445;51.376;10.874;2023-05-24T02:04:52;99859.09;;;10.26;50.17
46714;BME280;32445;51.376;10.874;2023-05-24T02:07:53;99853.97;;;10.22;49.68
46714;BME280;32445;51.376;10.874;2023-05-24T02:10:53;99857.47;;;10.21;49.96
46714;BME280;32445;51.376;10.874;2023-05-24T02:13:54;99856.63;;;10.19;50.21
46714;BME280;32445;51.376;10.874;2023-05-24T02:16:54;99859.28;;;10.16;50.36
46714;BME280;32445;51.376;10.874;2023-05-24T02:20:01;99860.22;;;10.12;50.29
46714;BME280;32445;51.376;10.874;2023-05-24T02:23:02;99854.22;;;10.10;50.08
46714;BME280;32445;51.376;10.874;2023-05-24T02:26:03;99858.56;;;10.08;50.58
46714;BME280;32445;51.376;10.874;2023-05-24T02:29:04;99863.81;;;10.05;50.37
46714;BME280;32445;51.376;10.874;2023-05-24T02:32:04;99866.44;;;10.03;50.47
46714;BME280;32445;51.376;10.874;2023-05-24T02:35:05;99873.41;;;10.00;49.81
46714;BME280;32445;51.376;10.874;2023-05-24T02:38:06;99865.69;;;9.97;50.22
46714;BME280;32445;51.376;10.874;2023-05-24T02:41:08;99865.75;;;9.94;50.32
46714;BME280;32445;51.376;10.874;2023-05-24T02:44:10;99862.38;;;9.90;50.20
46714;BME280;32445;51.376;10.874;2023-05-24T02:47:11;99858.09;;;9.87;50.34
46714;BME280;32445;51.376;10.874;2023-05-24T02:50:11;99866.78;;;9.85;50.33
46714;BME280;32445;51.376;10.874;2023-05-24T02:53:12;99862.50;;;9.81;49.98
46714;BME280;32445;51.376;10.874;2023-05-24T02:56:12;99859.13;;;9.77;50.31
46714;BME280;32445;51.376;10.874;2023-05-24T02:59:13;99868.66;;;9.75;49.88
46714;BME280;32445;51.376;10.874;2023-05-24T03:02:13;99870.47;;;9.72;50.25
46714;BME280;32445;51.376;10.874;2023-05-24T03:05:14;99874.81;;;9.68;49.91
46714;BME280;32445;51.376;10.874;2023-05-24T03:08:14;99875.75;;;9.64;50.23
46714;BME280;32445;51.376;10.874;2023-05-24T03:11:15;99874.97;;;9.60;49.52
46714;BME280;32445;51.376;10.874;2023-05-24T03:14:18;99875.88;;;9.58;50.19
46714;BME280;32445;51.376;10.874;2023-05-24T03:17:21;99872.44;;;9.54;49.79
46714;BME280;32445;51.376;10.874;2023-05-24T03:20:22;99873.41;;;9.50;49.91
46714;BME280;32445;51.376;10.874;2023-05-24T03:23:23;99871.75;;;9.46;49.72
46714;BME280;32445;51.376;10.874;2023-05-24T03:26:24;99862.28;;;9.42;50.30
46714;BME280;32445;51.376;10.874;2023-05-24T03:29:25;99860.59;;;9.39;49.61
46714;BME280;32445;51.376;10.874;2023-05-24T03:32:26;99866.69;;;9.37;49.96
46714;BME280;32445;51.376;10.874;2023-05-24T03:35:26;99866.75;;;9.32;50.00
46714;BME280;32445;51.376;10.874;2023-05-24T03:38:27;99865.06;;;9.29;49.98
46714;BME280;32445;51.376;10.874;2023-05-24T03:41:27;99866.84;;;9.27;50.14
46714;BME280;32445;51.376;10.874;2023-05-24T03:44:28;99866.00;;;9.24;50.07
46714;BME280;32445;51.376;10.874;2023-05-24T03:47:28;99866.06;;;9.21;50.24
46714;BME280;32445;51.376;10.874;2023-05-24T03:50:29;99874.72;;;9.18;50.53
46714;BME280;32445;51.376;10.874;2023-05-24T03:53:29;99873.06;;;9.14;50.11
46714;BME280;32445;51.376;10.874;2023-05-24T03:56:31;99873.06;;;9.12;50.42
46714;BME280;32445;51.376;10.874;2023-05-24T03:59:31;99874.88;;;9.09;50.26
46714;BME280;32445;51.376;10.874;2023-05-24T04:02:32;99875.75;;;9.06;50.27
46714;BME280;32445;51.376;10.874;2023-05-24T04:05:32;99893.06;;;9.04;50.46
46714;BME280;32445;51.376;10.874;2023-05-24T04:08:33;99888.78;;;9.02;50.38
46714;BME280;32445;51.376;10.874;2023-05-24T04:11:33;99895.69;;;8.99;49.68
46714;BME280;32445;51.376;10.874;2023-05-24T04:14:33;99900.91;;;8.98;50.56
46714;BME280;32445;51.376;10.874;2023-05-24T04:17:34;99899.22;;;8.97;50.42
46714;BME280;32445;51.376;10.874;2023-05-24T04:20:34;99899.19;;;8.95;50.45
46714;BME280;32445;51.376;10.874;2023-05-24T04:23:35;99904.38;;;8.95;50.50
46714;BME280;32445;51.376;10.874;2023-05-24T04:26:36;99904.41;;;8.92;50.94
46714;BME280;32445;51.376;10.874;2023-05-24T04:29:38;99906.16;;;8.92;50.99
46714;BME280;32445;51.376;10.874;2023-05-24T04:32:39;99907.03;;;8.91;51.13
46714;BME280;32445;51.376;10.874;2023-05-24T04:35:40;99906.19;;;8.90;51.18
46714;BME280;32445;51.376;10.874;2023-05-24T04:38:41;99908.78;;;8.90;51.24
46714;BME280;32445;51.376;10.874;2023-05-24T04:41:41;99906.22;;;8.89;50.75
46714;BME280;32445;51.376;10.874;2023-05-24T04:44:42;99898.44;;;8.89;51.32
46714;BME280;32445;51.376;10.874;2023-05-24T04:47:42;99907.06;;;8.89;51.78
46714;BME280;32445;51.376;10.874;2023-05-24T04:50:43;99913.97;;;8.89;51.31
46714;BME280;32445;51.376;10.874;2023-05-24T04:53:43;99907.91;;;8.91;51.54
46714;BME280;32445;51.376;10.874;2023-05-24T04:56:43;99916.50;;;8.93;51.72
46714;BME280;32445;51.376;10.874;2023-05-24T04:59:46;99914.72;;;8.95;51.48
46714;BME280;32445;51.376;10.874;2023-05-24T05:02:46;99912.16;;;8.95;51.89
46714;BME280;32445;51.376;10.874;2023-05-24T05:05:47;99921.63;;;8.98;52.36
46714;BME280;32445;51.376;10.874;2023-05-24T05:08:47;99915.53;;;9.00;52.34
46714;BME280;32445;51.376;10.874;2023-05-24T05:11:47;99920.72;;;9.00;52.64
46714;BME280;32445;51.376;10.874;2023-05-24T05:14:48;99927.63;;;9.02;53.38
46714;BME280;32445;51.376;10.874;2023-05-24T05:17:49;99916.38;;;9.04;53.66
46714;BME280;32445;51.376;10.874;2023-05-24T05:20:50;99918.03;;;9.07;53.32
46714;BME280;32445;51.376;10.874;2023-05-24T05:23:50;99923.22;;;9.10;54.07
46714;BME280;32445;51.376;10.874;2023-05-24T05:26:51;99920.53;;;9.16;53.80
46714;BME280;32445;51.376;10.874;2023-05-24T05:29:52;99923.88;;;9.21;54.00
46714;BME280;32445;51.376;10.874;2023-05-24T05:32:52;99928.16;;;9.25;54.52
46714;BME280;32445;51.376;10.874;2023-05-24T05:35:52;99923.81;;;9.27;54.96
46714;BME280;32445;51.376;10.874;2023-05-24T05:38:53;99921.13;;;9.33;55.24
46714;BME280;32445;51.376;10.874;2023-05-24T05:41:53;99914.16;;;9.39;55.13
46714;BME280;32445;51.376;10.874;2023-05-24T05:44:54;99922.72;;;9.42;54.82
46714;BME280;32445;51.376;10.874;2023-05-24T05:47:54;99919.28;;;9.43;55.11
46714;BME280;32445;51.376;10.874;2023-05-24T05:50:54;99924.38;;;9.48;54.84
46714;BME280;32445;51.376;10.874;2023-05-24T05:53:55;99927.75;;;9.55;55.38
46714;BME280;32445;51.376;10.874;2023-05-24T05:56:56;99927.69;;;9.58;55.52
46714;BME280;32445;51.376;10.874;2023-05-24T05:59:57;99932.00;;;9.59;55.72
46714;BME280;32445;51.376;10.874;2023-05-24T06:03:00;99925.84;;;9.66;55.41
46714;BME280;32445;51.376;10.874;2023-05-24T06:06:00;99928.28;;;9.75;55.37
46714;BME280;32445;51.376;10.874;2023-05-24T06:09:01;99925.59;;;9.80;55.40
46714;BME280;32445;51.376;10.874;2023-05-24T06:12:01;99923.78;;;9.86;55.38
46714;BME280;32445;51.376;10.874;2023-05-24T06:15:01;99929.72;;;9.95;55.65
46714;BME280;32445;51.376;10.874;2023-05-24T06:18:05;99938.25;;;10.00;55.42
46714;BME280;32445;51.376;10.874;2023-05-24T06:21:06;99937.28;;;10.05;55.54
46714;BME280;32445;51.376;10.874;2023-05-24T06:24:09;99941.53;;;10.10;55.10
46714;BME280;32445;51.376;10.874;2023-05-24T06:27:10;99934.56;;;10.13;54.96
46714;BME280;32445;51.376;10.874;2023-05-24T06:30:12;99931.94;;;10.15;55.24
46714;BME280;32445;51.376;10.874;2023-05-24T06:33:12;99933.59;;;10.20;55.19
46714;BME280;32445;51.376;10.874;2023-05-24T06:36:12;99933.47;;;10.27;55.17
46714;BME280;32445;51.376;10.874;2023-05-24T06:39:14;99941.13;;;10.36;54.76
46714;BME280;32445;51.376;10.874;2023-05-24T06:42:15;99941.06;;;10.39;54.49
46714;BME280;32445;51.376;10.874;2023-05-24T06:45:15;99938.41;;;10.42;54.70
46714;BME280;32445;51.376;10.874;2023-05-24T06:48:16;99945.22;;;10.48;54.60
46714;BME280;32445;51.376;10.874;2023-05-24T06:51:16;99952.00;;;10.56;54.16
46714;BME280;32445;51.376;10.874;2023-05-24T06:54:17;99947.47;;;10.66;53.94
46714;BME280;32445;51.376;10.874;2023-05-24T06:57:18;99948.13;;;10.78;53.83
46714;BME280;32445;51.376;10.874;2023-05-24T07:00:18;99953.94;;;10.90;53.28
46714;BME280;32445;51.376;10.874;2023-05-24T07:03:19;99951.09;;;11.01;53.59
46714;BME280;32445;51.376;10.874;2023-05-24T07:06:20;99955.16;;;11.13;53.30
46714;BME280;32445;51.376;10.874;2023-05-24T07:09:21;99950.53;;;11.29;53.48
46714;BME280;32445;51.376;10.874;2023-05-24T07:12:21;99945.03;;;11.41;52.91
46714;BME280;32445;51.376;10.874;2023-05-24T07:15:22;99955.22;;;11.52;52.58
46714;BME280;32445;51.376;10.874;2023-05-24T07:18:23;99951.63;;;11.58;52.05
46714;BME280;32445;51.376;10.874;2023-05-24T07:21:23;99960.03;;;11.69;51.66
46714;BME280;32445;51.376;10.874;2023-05-24T07:24:23;99959.78;;;11.78;51.56
46714;BME280;32445;51.376;10.874;2023-05-24T07:27:24;99955.09;;;11.93;51.33
46714;BME280;32445;51.376;10.874;2023-05-24T07:30:24;99955.81;;;12.01;51.18
46714;BME280;32445;51.376;10.874;2023-05-24T07:33:24;99960.72;;;12.12;50.26
46714;BME280;32445;51.376;10.874;2023-05-24T07:36:25;99952.53;;;12.27;50.32
46714;BME280;32445;51.376;10.874;2023-05-24T07:39:26;99963.47;;;12.40;50.28
46714;BME280;32445;51.376;10.874;2023-05-24T07:42:27;99963.16;;;12.53;50.47
46714;BME280;32445;51.376;10.874;2023-05-24T07:45:27;99958.69;;;12.58;49.92
46714;BME280;32445;51.376;10.874;2023-05-24T07:48:28;99955.06;;;12.63;50.06
46714;BME280;32445;51.376;10.874;2023-05-24T07:51:28;99964.44;;;12.69;49.50
46714;BME280;32445;51.376;10.874;2023-05-24T07:54:29;99963.47;;;12.73;49.45
46714;BME280;32445;51.376;10.874;2023-05-24T07:57:30;99956.13;;;12.88;49.38
46714;BME280;32445;51.376;10.874;2023-05-24T08:00:30;99963.69;;;12.97;49.68
46714;BME280;32445;51.376;10.874;2023-05-24T08:03:33;99963.50;;;13.03;49.36
46714;BME280;32445;51.376;10.874;2023-05-24T08:06:36;99958.06;;;13.11;49.07
46714;BME280;32445;51.376;10.874;2023-05-24T08:09:37;99956.31;;;13.11;49.41
46714;BME280;32445;51.376;10.874;2023-05-24T08:12:37;99957.94;;;13.15;48.99
46714;BME280;32445;51.376;10.874;2023-05-24T08:15:38;99957.00;;;13.18;49.03
46714;BME280;32445;51.376;10.874;2023-05-24T08:18:38;99952.41;;;13.26;49.19
46714;BME280;32445;51.376;10.874;2023-05-24T08:21:39;99957.44;;;13.32;49.48
46714;BME280;32445;51.376;10.874;2023-05-24T08:24:41;99960.69;;;13.41;49.57
46714;BME280;32445;51.376;10.874;2023-05-24T08:27:41;99959.66;;;13.46;49.28
46714;BME280;32445;51.376;10.874;2023-05-24T08:30:42;99961.16;;;13.54;48.94
46714;BME280;32445;51.376;10.874;2023-05-24T08:33:43;99968.72;;;13.63;48.96
46714;BME280;32445;51.376;10.874;2023-05-24T08:36:43;99964.81;;;13.76;48.50
46714;BME280;32445;51.376;10.874;2023-05-24T08:39:45;99971.31;;;13.91;47.84
46714;BME280;32445;51.376;10.874;2023-05-24T08:42:46;99966.53;;;14.04;47.24
46714;BME280;32445;51.376;10.874;2023-05-24T08:45:48;99964.38;;;14.17;46.94
46714;BME280;32445;51.376;10.874;2023-05-24T08:48:50;99969.97;;;14.31;46.12
46714;BME280;32445;51.376;10.874;2023-05-24T08:51:51;99969.75;;;14.38;46.36
46714;BME280;32445;51.376;10.874;2023-05-24T08:54:52;99972.25;;;14.41;46.10
46714;BME280;32445;51.376;10.874;2023-05-24T08:57:54;99967.69;;;14.47;46.23
46714;BME280;32445;51.376;10.874;2023-05-24T09:00:55;99969.22;;;14.53;46.06
46714;BME280;32445;51.376;10.874;2023-05-24T09:03:58;99974.16;;;14.62;45.67
46714;BME280;32445;51.376;10.874;2023-05-24T09:06:59;99972.78;;;14.76;45.73
46714;BME280;32445;51.376;10.874;2023-05-24T09:10:04;99978.59;;;14.84;45.18
46714;BME280;32445;51.376;10.874;2023-05-24T09:13:06;99979.53;;;14.83;45.08
46714;BME280;32445;51.376;10.874;2023-05-24T09:16:07;99971.59;;;14.86;45.34
46714;BME280;32445;51.376;10.874;2023-05-24T09:19:07;99972.88;;;14.98;45.51
46714;BME280;32445;51.376;10.874;2023-05-24T09:22:08;99970.78;;;15.08;45.27
46714;BME280;32445;51.376;10.874;2023-05-24T09:25:11;99973.09;;;15.15;45.13
46714;BME280;32445;51.376;10.874;2023-05-24T09:28:18;99969.41;;;15.21;45.19
46714;BME280;32445;51.376;10.874;2023-05-24T09:31:31;99964.81;;;15.28;45.69
46714;BME280;32445;51.376;10.874;2023-05-24T09:34:44;99955.50;;;15.43;46.16
46714;BME280;32445;51.376;10.874;2023-05-24T09:37:48;99958.31;;;15.60;44.59
46714;BME280;32445;51.376;10.874;2023-05-24T09:41:03;99955.97;;;15.74;43.73
46714;BME280;32445;51.376;10.874;2023-05-24T09:44:04;99957.03;;;15.93;43.50
46714;BME280;32445;51.376;10.874;2023-05-24T09:47:05;99961.94;;;16.00;43.55
46714;BME280;32445;51.376;10.874;2023-05-24T09:50:11;99961.59;;;16.09;43.08
46714;BME280;32445;51.376;10.874;2023-05-24T09:53:16;99963.03;;;16.17;42.21
46714;BME280;32445;51.376;10.874;2023-05-24T09:56:17;99960.16;;;16.23;42.30
46714;BME280;32445;51.376;10.874;2023-05-24T09:59:18;99955.38;;;16.33;42.81
46714;BME280;32445;51.376;10.874;2023-05-24T10:02:20;99963.63;;;16.44;42.44
46714;BME280;32445;51.376;10.874;2023-05-24T10:05:22;99963.28;;;16.52;42.53
46714;BME280;32445;51.376;10.874;2023-05-24T10:08:23;99960.56;;;16.55;42.57
46714;BME280;32445;51.376;10.874;2023-05-24T10:11:23;99963.34;;;16.50;41.61
46714;BME280;32445;51.376;10.874;2023-05-24T10:14:31;99964.41;;;16.46;41.88
46714;BME280;32445;51.376;10.874;2023-05-24T10:17:32;99956.44;;;16.49;42.07
46714;BME280;32445;51.376;10.874;2023-05-24T10:20:32;99965.53;;;16.61;41.85
46714;BME280;32445;51.376;10.874;2023-05-24T10:23:35;99961.34;;;16.76;42.59
46714;BME280;32445;51.376;10.874;2023-05-24T10:26:37;99960.91;;;16.87;41.89
46714;BME280;32445;51.376;10.874;2023-05-24T10:33:04;99975.97;;;17.02;40.43
46714;BME280;32445;51.376;10.874;2023-05-24T10:36:09;99974.03;;;17.06;40.94
46714;BME280;32445;51.376;10.874;2023-05-24T10:39:10;99975.25;;;17.18;40.54
46714;BME280;32445;51.376;10.874;2023-05-24T10:42:11;99975.00;;;17.24;40.51
46714;BME280;32445;51.376;10.874;2023-05-24T10:51:35;99972.84;;;17.32;38.88
46714;BME280;32445;51.376;10.874;2023-05-24T10:54:37;99967.03;;;17.44;39.95
46714;BME280;32445;51.376;10.874;2023-05-24T10:57:39;99961.19;;;17.57;39.49
46714;BME280;32445;51.376;10.874;2023-05-24T11:00:42;99959.25;;;17.60;39.19
46714;BME280;32445;51.376;10.874;2023-05-24T11:03:43;99963.63;;;17.79;38.93
46714;BME280;32445;51.376;10.874;2023-05-24T11:06:51;99962.91;;;17.94;39.28
46714;BME280;32445;51.376;10.874;2023-05-24T11:09:55;99960.22;;;18.13;38.61
46714;BME280;32445;51.376;10.874;2023-05-24T11:12:59;99960.75;;;18.20;37.96
46714;BME280;32445;51.376;10.874;2023-05-24T11:16:01;99954.50;;;18.23;37.88
46714;BME280;32445;51.376;10.874;2023-05-24T11:19:23;99960.06;;;18.16;37.59
46714;BME280;32445;51.376;10.874;2023-05-24T11:22:24;99957.22;;;18.21;38.73
46714;BME280;32445;51.376;10.874;2023-05-24T11:25:25;99959.75;;;18.23;38.02
46714;BME280;32445;51.376;10.874;2023-05-24T11:28:26;99957.66;;;18.29;38.80
46714;BME280;32445;51.376;10.874;2023-05-24T11:31:27;99947.69;;;18.36;38.40
46714;BME280;32445;51.376;10.874;2023-05-24T11:34:27;99942.34;;;18.38;37.60
46714;BME280;32445;51.376;10.874;2023-05-24T11:37:28;99944.69;;;18.26;37.68
46714;BME280;32445;51.376;10.874;2023-05-24T11:40:29;99939.75;;;18.20;37.00
46714;BME280;32445;51.376;10.874;2023-05-24T11:43:30;99942.38;;;18.20;36.86
46714;BME280;32445;51.376;10.874;2023-05-24T11:46:31;99941.59;;;18.36;37.41
46714;BME280;32445;51.376;10.874;2023-05-24T11:49:32;99944.78;;;18.58;37.47
46714;BME280;32445;51.376;10.874;2023-05-24T11:52:37;99938.72;;;18.74;37.29
46714;BME280;32445;51.376;10.874;2023-05-24T11:55:39;99929.63;;;18.97;37.63
46714;BME280;32445;51.376;10.874;2023-05-24T11:58:47;99939.84;;;19.19;36.83
46714;BME280;32445;51.376;10.874;2023-05-24T12:01:59;99944.34;;;19.33;36.52
46714;BME280;32445;51.376;10.874;2023-05-24T12:05:07;99934.91;;;19.45;35.76
46714;BME280;32445;51.376;10.874;2023-05-24T12:08:10;99944.25;;;19.50;35.24
46714;BME280;32445;51.376;10.874;2023-05-24T12:11:17;99941.09;;;19.44;34.84
46714;BME280;32445;51.376;10.874;2023-05-24T12:14:28;99933.44;;;19.55;35.75
46714;BME280;32445;51.376;10.874;2023-05-24T12:17:32;99935.66;;;19.79;35.43
46714;BME280;32445;51.376;10.874;2023-05-24T12:20:32;99942.97;;;20.04;34.77
46714;BME280;32445;51.376;10.874;2023-05-24T12:23:34;99940.50;;;20.31;34.71
46714;BME280;32445;51.376;10.874;2023-05-24T12:26:46;99941.28;;;20.48;33.53
46714;BME280;32445;51.376;10.874;2023-05-24T12:29:47;99949.94;;;20.50;32.83
46714;BME280;32445;51.376;10.874;2023-05-24T12:32:48;99946.47;;;20.49;33.59
46714;BME280;32445;51.376;10.874;2023-05-24T12:35:50;99943.53;;;20.54;32.89
46714;BME280;32445;51.376;10.874;2023-05-24T12:38:52;99947.97;;;20.53;32.90
46714;BME280;32445;51.376;10.874;2023-05-24T12:41:54;99944.94;;;20.60;34.03
46714;BME280;32445;51.376;10.874;2023-05-24T12:44:55;99948.06;;;20.66;34.16
46714;BME280;32445;51.376;10.874;2023-05-24T12:47:57;99951.66;;;20.65;33.23
46714;BME280;32445;51.376;10.874;2023-05-24T12:50:58;99953.16;;;20.55;33.57
46714;BME280;32445;51.376;10.874;2023-05-24T12:53:58;99959.75;;;20.48;33.58
46714;BME280;32445;51.376;10.874;2023-05-24T12:57:01;99950.50;;;20.40;33.05
46714;BME280;32445;51.376;10.874;2023-05-24T13:00:04;99946.16;;;20.39;33.14
46714;BME280;32445;51.376;10.874;2023-05-24T13:03:05;99943.34;;;20.43;34.57
46714;BME280;32445;51.376;10.874;2023-05-24T13:06:06;99945.69;;;20.47;34.39
46714;BME280;32445;51.376;10.874;2023-05-24T13:09:06;99942.31;;;20.45;34.27
46714;BME280;32445;51.376;10.874;2023-05-24T13:12:07;99938.94;;;20.43;34.39
46714;BME280;32445;51.376;10.874;2023-05-24T13:15:08;99941.59;;;20.27;33.31
46714;BME280;32445;51.376;10.874;2023-05-24T13:18:09;99936.53;;;20.24;34.33
46714;BME280;32445;51.376;10.874;2023-05-24T13:21:09;99947.94;;;20.25;34.11
46714;BME280;32445;51.376;10.874;2023-05-24T13:24:12;99940.88;;;20.25;33.91
46714;BME280;32445;51.376;10.874;2023-05-24T13:27:13;99942.91;;;20.20;33.83
46714;BME280;32445;51.376;10.874;2023-05-24T13:30:14;99937.53;;;20.21;34.39
46714;BME280;32445;51.376;10.874;2023-05-24T13:33:16;99924.94;;;20.27;34.83
46714;BME280;32445;51.376;10.874;2023-05-24T13:36:16;99926.09;;;20.37;34.56
46714;BME280;32445;51.376;10.874;2023-05-24T13:39:17;99934.59;;;20.42;34.36
46714;BME280;32445;51.376;10.874;2023-05-24T13:42:18;99931.47;;;20.35;35.53
46714;BME280;32445;51.376;10.874;2023-05-24T13:45:19;99941.56;;;20.43;35.06
46714;BME280;32445;51.376;10.874;2023-05-24T13:48:19;99937.88;;;20.46;35.22
46714;BME280;32445;51.376;10.874;2023-05-24T13:51:20;99935.13;;;20.47;34.70
46714;BME280;32445;51.376;10.874;2023-05-24T13:54:21;99941.09;;;20.51;34.75
46714;BME280;32445;51.376;10.874;2023-05-24T13:57:22;99943.72;;;20.51;34.92
46714;BME280;32445;51.376;10.874;2023-05-24T14:00:23;99936.75;;;20.50;34.73
46714;BME280;32445;51.376;10.874;2023-05-24T14:03:23;99941.28;;;20.48;34.71
46714;BME280;32445;51.376;10.874;2023-05-24T14:06:24;99943.13;;;20.46;35.22
46714;BME280;32445;51.376;10.874;2023-05-24T14:09:24;99938.72;;;20.46;35.66
46714;BME280;32445;51.376;10.874;2023-05-24T14:12:28;99941.38;;;20.46;34.97
46714;BME280;32445;51.376;10.874;2023-05-24T14:15:28;99942.94;;;20.49;35.24
46714;BME280;32445;51.376;10.874;2023-05-24T14:18:29;99941.19;;;20.49;35.72
46714;BME280;32445;51.376;10.874;2023-05-24T14:21:29;99941.94;;;20.51;35.53
46714;BME280;32445;51.376;10.874;2023-05-24T14:24:30;99946.56;;;20.48;34.78
46714;BME280;32445;51.376;10.874;2023-05-24T14:27:30;99944.84;;;20.47;34.98
46714;BME280;32445;51.376;10.874;2023-05-24T14:30:33;99945.69;;;20.47;34.42
46714;BME280;32445;51.376;10.874;2023-05-24T14:33:36;99940.41;;;20.47;34.75
46714;BME280;32445;51.376;10.874;2023-05-24T14:36:37;99935.63;;;20.54;35.21
46714;BME280;32445;51.376;10.874;2023-05-24T14:39:39;99941.28;;;20.62;35.47
46714;BME280;32445;51.376;10.874;2023-05-24T14:42:40;99938.06;;;20.57;33.93
46714;BME280;32445;51.376;10.874;2023-05-24T14:45:41;99941.19;;;20.49;35.04
46714;BME280;32445;51.376;10.874;2023-05-24T14:48:41;99932.34;;;20.65;35.16
46714;BME280;32445;51.376;10.874;2023-05-24T14:51:45;99936.59;;;20.82;34.64
46714;BME280;32445;51.376;10.874;2023-05-24T14:54:47;99940.47;;;20.90;34.53
46714;BME280;32445;51.376;10.874;2023-05-24T14:57:47;99935.00;;;20.94;33.67
46714;BME280;32445;51.376;10.874;2023-05-24T15:00:48;99954.19;;;21.10;33.60
46714;BME280;32445;51.376;10.874;2023-05-24T15:03:49;99948.72;;;21.13;33.53
46714;BME280;32445;51.376;10.874;2023-05-24T15:06:49;99950.78;;;21.22;33.28
46714;BME280;32445;51.376;10.874;2023-05-24T15:09:50;99949.66;;;21.26;33.56
46714;BME280;32445;51.376;10.874;2023-05-24T15:12:50;99950.94;;;21.34;33.54
46714;BME280;32445;51.376;10.874;2023-05-24T15:15:51;99951.25;;;21.29;33.04
46714;BME280;32445;51.376;10.874;2023-05-24T15:18:53;99953.69;;;21.32;33.92
46714;BME280;32445;51.376;10.874;2023-05-24T15:21:54;99954.53;;;21.33;33.70
46714;BME280;32445;51.376;10.874;2023-05-24T15:24:54;99957.91;;;21.35;33.85
46714;BME280;32445;51.376;10.874;2023-05-24T15:27:55;99946.72;;;21.31;33.70
46714;BME280;32445;51.376;10.874;2023-05-24T15:30:55;99951.53;;;21.24;33.59
46714;BME280;32445;51.376;10.874;2023-05-24T15:33:56;99948.16;;;21.22;34.04
46714;BME280;32445;51.376;10.874;2023-05-24T15:36:59;99948.97;;;21.23;33.72
46714;BME280;32445;51.376;10.874;2023-05-24T15:40:00;99956.06;;;21.22;33.96
46714;BME280;32445;51.376;10.874;2023-05-24T15:43:00;99949.19;;;21.20;34.88
46714;BME280;32445;51.376;10.874;2023-05-24T15:46:01;99947.56;;;21.17;35.42
46714;BME280;32445;51.376;10.874;2023-05-24T15:49:04;99942.19;;;21.19;34.76
46714;BME280;32445;51.376;10.874;2023-05-24T15:52:05;99947.78;;;21.14;33.95
46714;BME280;32445;51.376;10.874;2023-05-24T15:55:06;99953.72;;;21.18;34.63
46714;BME280;32445;51.376;10.874;2023-05-24T15:58:07;99958.91;;;21.19;34.18
46714;BME280;32445;51.376;10.874;2023-05-24T16:01:07;99950.59;;;21.25;35.01
46714;BME280;32445;51.376;10.874;2023-05-24T16:04:07;99956.78;;;21.39;35.04
46714;BME280;32445;51.376;10.874;2023-05-24T16:07:08;99954.28;;;21.50;34.28